Shafter, Illinois
Current Conditions -  °F | °C
As of 8:15 AM on Friday 19 Dec 2014 (Local Time) from KSLO Reporting Station
Haze Haze  
Wind Chill: 30°   Ceiling: Unl
Heat Index: 30°   Visibility: 4mi
Dew Point: 26°   Wind: 3mph
Humidity: 85%   Direction: 80°E
Pressure: 30.33"   Gusts: NA
Location:  38.8752°N, 89.1076°W
Report Text: KSLO 191415Z AUTO 08003KT 4SM BR CLR M01/M03 A3033 RMK AO2 T10101033
Loading
Personal Weather Stations






























Interactive Weather Map New forecast layout! Learn more

10-Day Weather Forecast

Advertisements
Track Severe Weather on mobile